createdAt,value
2023-01-26T00:00:22.480Z,53.74
2023-01-26T00:05:45.699Z,53.18
2023-01-26T00:10:51.363Z,54.35
2023-01-26T00:15:54.341Z,55.73
2023-01-26T00:21:02.493Z,56.77
2023-01-26T00:26:12.817Z,59.06
2023-01-26T00:31:34.024Z,61.27
2023-01-26T00:36:37.796Z,67.25
2023-01-26T00:41:59.255Z,68.35
2023-01-26T00:47:02.198Z,63.57
2023-01-26T00:52:05.932Z,56.10
2023-01-26T00:57:09.685Z,53.94
2023-01-26T01:02:12.691Z,55.12
2023-01-26T01:07:15.944Z,56.45
2023-01-26T01:12:18.914Z,57.94
2023-01-26T01:17:21.882Z,60.78
2023-01-26T01:22:25.020Z,66.56
2023-01-26T01:27:28.137Z,64.10
2023-01-26T01:32:31.062Z,55.78
2023-01-26T01:37:34.259Z,55.33
2023-01-26T01:42:37.223Z,56.74
2023-01-26T01:47:40.178Z,58.06
2023-01-26T01:52:43.325Z,59.46
2023-01-26T01:57:55.409Z,60.44
2023-01-26T02:03:13.562Z,64.52
2023-01-26T02:08:19.443Z,68.61
2023-01-26T02:13:24.465Z,59.41
2023-01-26T02:18:28.838Z,55.22
2023-01-26T02:23:53.289Z,56.62
2023-01-26T02:28:56.925Z,58.25
2023-01-26T02:33:59.874Z,62.05
2023-01-26T02:39:39.115Z,63.31
2023-01-26T02:44:43.375Z,56.26
2023-01-26T02:49:52.810Z,54.36
2023-01-26T02:55:14.647Z,57.78
2023-01-26T03:00:22.537Z,60.94
2023-01-26T03:05:27.919Z,64.22
2023-01-26T03:10:30.934Z,62.95
2023-01-26T03:15:43.318Z,55.78
2023-01-26T03:21:04.760Z,54.23
2023-01-26T03:26:29.302Z,56.54
2023-01-26T03:31:32.340Z,60.58
2023-01-26T03:36:35.358Z,61.37
2023-01-26T03:41:56.848Z,66.12
2023-01-26T03:47:19.009Z,58.60
2023-01-26T03:52:40.399Z,53.53
2023-01-26T03:57:43.347Z,54.27
2023-01-26T04:03:04.712Z,56.70
2023-01-26T04:08:23.292Z,57.53
2023-01-26T04:13:44.911Z,62.35
2023-01-26T04:19:06.581Z,66.24
2023-01-26T04:24:17.204Z,58.79
2023-01-26T04:29:20.474Z,54.04
2023-01-26T04:34:23.460Z,56.91
2023-01-26T04:39:26.513Z,57.50
2023-01-26T04:44:29.432Z,59.06
2023-01-26T04:49:32.419Z,62.00
2023-01-26T04:54:35.365Z,64.67
2023-01-26T04:59:38.479Z,53.59
2023-01-26T05:04:41.461Z,52.79
2023-01-26T05:09:44.465Z,54.67
2023-01-26T05:14:47.459Z,56.50
2023-01-26T05:19:50.396Z,58.13
2023-01-26T05:24:53.381Z,60.14
2023-01-26T05:30:00.438Z,65.92
2023-01-26T05:35:05.220Z,60.81
2023-01-26T05:40:11.278Z,54.46
2023-01-26T05:45:14.833Z,54.64
2023-01-26T05:50:18.194Z,55.98
2023-01-26T05:55:21.211Z,55.59
2023-01-26T06:00:24.729Z,57.88
2023-01-26T06:05:27.667Z,58.31
2023-01-26T06:10:30.668Z,59.06
2023-01-26T06:15:33.795Z,60.01
2023-01-26T06:20:36.724Z,61.83
2023-01-26T06:25:39.796Z,67.55
2023-01-26T06:30:42.825Z,65.77
2023-01-26T06:35:45.779Z,55.11
2023-01-26T06:40:48.759Z,51.30
2023-01-26T06:45:51.699Z,51.50
2023-01-26T06:51:19.628Z,53.57
2023-01-26T06:56:24.215Z,54.96
2023-01-26T07:01:27.461Z,56.10
2023-01-26T07:06:30.470Z,58.12
2023-01-26T07:11:33.490Z,59.11
2023-01-26T07:16:36.452Z,59.91
2023-01-26T07:21:39.792Z,60.52
2023-01-26T07:26:42.777Z,62.47
2023-01-26T07:31:45.922Z,69.06
2023-01-26T07:36:53.176Z,62.34
2023-01-26T07:41:56.173Z,54.97
2023-01-26T07:46:59.540Z,51.45
2023-01-26T07:52:04.689Z,52.45
2023-01-26T07:57:08.365Z,52.76
2023-01-26T08:02:11.520Z,55.15
2023-01-26T08:07:14.440Z,57.35
2023-01-26T08:12:17.745Z,59.61
2023-01-26T08:17:20.687Z,59.63
2023-01-26T08:22:23.717Z,60.33
2023-01-26T08:27:26.735Z,64.87
2023-01-26T08:32:32.267Z,64.29
2023-01-26T08:37:35.242Z,55.51
2023-01-26T08:42:38.207Z,53.75
2023-01-26T08:47:41.199Z,56.29
2023-01-26T08:52:45.026Z,58.38
2023-01-26T08:57:55.278Z,61.35
2023-01-26T09:03:00.657Z,64.77
2023-01-26T09:08:06.229Z,63.26
2023-01-26T09:13:09.663Z,50.34
2023-01-26T09:18:12.679Z,51.09
2023-01-26T09:23:18.188Z,52.75
2023-01-26T09:28:21.224Z,56.05
2023-01-26T09:33:25.431Z,57.82
2023-01-26T09:38:28.408Z,59.94
2023-01-26T09:43:51.402Z,61.27
2023-01-26T09:49:15.977Z,66.83
2023-01-26T09:55:02.684Z,55.00
2023-01-26T10:00:28.439Z,52.60
2023-01-26T10:06:05.645Z,53.32
2023-01-26T10:11:22.201Z,55.54
2023-01-26T10:16:25.615Z,59.24
2023-01-26T10:21:35.381Z,58.18
2023-01-26T10:26:38.469Z,58.78
2023-01-26T10:31:41.967Z,60.17
2023-01-26T10:36:47.049Z,61.07
2023-01-26T10:42:19.344Z,64.58
2023-01-26T10:47:22.452Z,66.07
2023-01-26T10:52:25.593Z,57.35
2023-01-26T10:57:32.645Z,50.19
2023-01-26T11:02:37.240Z,50.21
2023-01-26T11:07:47.239Z,51.21
2023-01-26T11:12:52.366Z,51.97
2023-01-26T11:18:13.070Z,52.87
2023-01-26T11:23:21.505Z,53.93
2023-01-26T11:28:46.349Z,56.09
2023-01-26T11:34:17.958Z,57.23
2023-01-26T11:39:34.800Z,57.72
2023-01-26T11:45:18.302Z,58.10
2023-01-26T11:50:36.348Z,59.49
2023-01-26T11:56:06.605Z,59.58
2023-01-26T12:01:29.016Z,59.73
2023-01-26T12:06:42.577Z,59.48
2023-01-26T12:11:59.256Z,60.08
2023-01-26T12:17:17.644Z,61.23
2023-01-26T12:22:47.900Z,67.46
2023-01-26T12:28:11.614Z,63.82
2023-01-26T12:33:15.096Z,51.80
2023-01-26T12:38:45.381Z,50.18
2023-01-26T12:44:08.339Z,50.55
2023-01-26T12:49:38.400Z,51.47
2023-01-26T12:54:53.093Z,53.27
2023-01-26T13:00:08.663Z,54.47
2023-01-26T13:05:34.925Z,55.74
2023-01-26T13:10:49.697Z,56.58
2023-01-26T13:16:15.514Z,57.58
2023-01-26T13:21:29.299Z,58.59
2023-01-26T13:26:32.029Z,59.47
2023-01-26T13:31:35.110Z,59.44
2023-01-26T13:36:45.498Z,59.74
2023-01-26T13:41:49.061Z,60.17
2023-01-26T13:47:07.435Z,60.70
2023-01-26T13:52:19.816Z,61.55
2023-01-26T13:57:28.338Z,61.60
2023-01-26T14:02:34.943Z,61.34
2023-01-26T14:07:44.880Z,61.03
2023-01-26T14:12:52.416Z,61.18
2023-01-26T14:18:01.918Z,61.41
2023-01-26T14:23:10.306Z,61.43
2023-01-26T14:28:20.885Z,61.28
2023-01-26T14:33:24.980Z,61.29
2023-01-26T14:38:33.033Z,61.65
2023-01-26T14:43:36.038Z,67.10
2023-01-26T14:48:48.282Z,64.68
2023-01-26T14:53:59.866Z,53.47
2023-01-26T14:59:05.094Z,51.26
2023-01-26T15:04:27.360Z,51.94
2023-01-26T15:09:34.140Z,52.99
2023-01-26T15:14:47.265Z,53.84
2023-01-26T15:19:52.295Z,54.27
2023-01-26T15:25:19.791Z,55.16
2023-01-26T15:30:38.637Z,56.21
2023-01-26T15:35:41.660Z,57.20
2023-01-26T15:40:44.616Z,58.04
2023-01-26T15:45:56.202Z,58.54
2023-01-26T15:50:59.341Z,59.18
2023-01-26T15:56:02.280Z,59.91
2023-01-26T16:01:05.800Z,60.48
2023-01-26T16:06:25.286Z,60.79
2023-01-26T16:11:40.451Z,60.78
2023-01-26T16:16:43.901Z,61.10
2023-01-26T16:21:46.928Z,61.27
2023-01-26T16:26:49.907Z,61.58
2023-01-26T16:31:52.974Z,61.81
2023-01-26T16:36:56.592Z,61.93
2023-01-26T16:41:59.575Z,62.03
2023-01-26T16:47:05.772Z,62.07
2023-01-26T16:52:10.647Z,62.20
2023-01-26T16:57:13.934Z,67.98
2023-01-26T17:02:27.825Z,65.06
2023-01-26T17:07:30.951Z,53.49
2023-01-26T17:12:33.955Z,51.85
2023-01-26T17:17:36.977Z,53.08
2023-01-26T17:22:40.091Z,54.20
2023-01-26T17:27:44.135Z,55.42
2023-01-26T17:32:47.116Z,55.94
2023-01-26T17:37:50.055Z,57.24
2023-01-26T17:42:52.970Z,57.86
2023-01-26T17:47:55.943Z,58.57
2023-01-26T17:52:58.899Z,58.84
2023-01-26T17:58:01.825Z,59.55
2023-01-26T18:03:05.861Z,59.91
2023-01-26T18:08:08.818Z,60.25
2023-01-26T18:13:11.854Z,60.90
2023-01-26T18:18:14.948Z,61.43
2023-01-26T18:23:18.619Z,61.67
2023-01-26T18:28:21.612Z,68.08
2023-01-26T18:33:24.882Z,65.91
2023-01-26T18:38:29.297Z,54.52
2023-01-26T18:43:32.821Z,52.64
2023-01-26T18:48:36.184Z,53.78
2023-01-26T18:53:40.768Z,54.91
2023-01-26T18:58:43.801Z,55.93
2023-01-26T19:03:47.569Z,57.36
2023-01-26T19:09:00.322Z,58.42
2023-01-26T19:14:04.912Z,58.28
2023-01-26T19:19:09.808Z,59.53
2023-01-26T19:24:12.895Z,60.26
2023-01-26T19:29:16.005Z,60.65
2023-01-26T19:34:19.026Z,61.13
2023-01-26T19:39:22.247Z,61.52
2023-01-26T19:44:25.241Z,62.03
2023-01-26T19:49:28.209Z,68.37
2023-01-26T19:54:31.536Z,64.50
2023-01-26T19:59:34.510Z,53.25
2023-01-26T20:04:37.678Z,52.59
2023-01-26T20:09:40.652Z,53.74
2023-01-26T20:14:43.596Z,54.94
2023-01-26T20:19:46.594Z,56.32
2023-01-26T20:24:49.653Z,57.50
2023-01-26T20:29:52.792Z,58.07
2023-01-26T20:34:56.007Z,59.11
2023-01-26T20:39:58.965Z,60.06
2023-01-26T20:45:02.070Z,60.68
2023-01-26T20:50:05.828Z,61.39
2023-01-26T20:55:11.805Z,61.48
2023-01-26T21:00:15.553Z,62.17
2023-01-26T21:05:19.687Z,68.57
2023-01-26T21:10:22.775Z,67.47
2023-01-26T21:15:25.715Z,54.68
2023-01-26T21:20:28.697Z,52.64
2023-01-26T21:25:31.694Z,54.53
2023-01-26T21:30:34.645Z,56.71
2023-01-26T21:35:37.589Z,58.33
2023-01-26T21:40:40.538Z,59.82
2023-01-26T21:45:55.999Z,60.38
2023-01-26T21:51:17.663Z,63.71
2023-01-26T21:56:20.620Z,69.28
2023-01-26T22:01:27.491Z,57.41
2023-01-26T22:06:31.176Z,51.50
2023-01-26T22:11:34.539Z,53.60
2023-01-26T22:16:37.532Z,55.73
2023-01-26T22:21:40.655Z,57.25
2023-01-26T22:26:43.680Z,58.89
2023-01-26T22:31:46.770Z,60.25
2023-01-26T22:36:49.820Z,60.86
2023-01-26T22:41:52.839Z,61.56
2023-01-26T22:46:55.915Z,69.81
2023-01-26T22:51:58.860Z,65.36
2023-01-26T22:57:01.924Z,55.75
2023-01-26T23:02:04.897Z,53.34
2023-01-26T23:07:07.918Z,54.60
2023-01-26T23:12:10.917Z,55.99
2023-01-26T23:17:13.849Z,57.26
2023-01-26T23:22:17.488Z,59.20
2023-01-26T23:27:20.542Z,60.89
2023-01-26T23:32:23.665Z,61.78
2023-01-26T23:37:26.598Z,66.99
2023-01-26T23:42:29.621Z,65.38
2023-01-26T23:47:32.729Z,55.70
2023-01-26T23:52:35.719Z,54.69
2023-01-26T23:57:38.779Z,56.39
